sensor_id;sensor_type;location;lat;lon;timestamp;temperature;humidity
38084;DHT22;23894;51.466;7.444;2022-10-18T12:25:39;32.10;99.90
38084;DHT22;23894;51.466;7.444;2022-10-18T12:30:29;35.40;99.90
38084;DHT22;23894;51.466;7.444;2022-10-18T12:32:33;36.50;99.90
38084;DHT22;23894;51.466;7.444;2022-10-18T12:34:50;36.80;99.90
38084;DHT22;23894;51.466;7.444;2022-10-18T12:39:16;35.40;99.90
38084;DHT22;23894;51.466;7.444;2022-10-18T12:41:22;36.90;99.90
38084;DHT22;23894;51.466;7.444;2022-10-18T12:43:26;37.70;99.90
38084;DHT22;23894;51.466;7.444;2022-10-18T12:45:33;38.30;99.90
38084;DHT22;23894;51.466;7.444;2022-10-18T12:47:34;38.50;99.90
38084;DHT22;23894;51.466;7.444;2022-10-18T12:49:37;38.60;99.90
38084;DHT22;23894;51.466;7.444;2022-10-18T12:51:49;38.80;99.90
38084;DHT22;23894;51.466;7.444;2022-10-18T12:58:29;39.70;99.90
38084;DHT22;23894;51.466;7.444;2022-10-18T13:02:30;38.70;99.90
38084;DHT22;23894;51.466;7.444;2022-10-18T13:04:32;36.60;99.90
38084;DHT22;23894;51.466;7.444;2022-10-18T13:09:19;31.80;99.90
38084;DHT22;23894;51.466;7.444;2022-10-18T13:11:31;30.20;99.90
38084;DHT22;23894;51.466;7.444;2022-10-18T13:20:38;27.40;99.90
38084;DHT22;23894;51.466;7.444;2022-10-18T13:25:26;27.40;99.90
38084;DHT22;23894;51.466;7.444;2022-10-18T13:28:01;28.00;99.90
38084;DHT22;23894;51.466;7.444;2022-10-18T13:30:18;29.90;99.90
38084;DHT22;23894;51.466;7.444;2022-10-18T13:34:35;31.80;99.90
38084;DHT22;23894;51.466;7.444;2022-10-18T13:36:38;30.30;99.90
38084;DHT22;23894;51.466;7.444;2022-10-18T13:38:46;30.30;99.90
38084;DHT22;23894;51.466;7.444;2022-10-18T13:41:23;31.80;99.90
38084;DHT22;23894;51.466;7.444;2022-10-18T13:46:04;32.50;99.90
38084;DHT22;23894;51.466;7.444;2022-10-18T13:50:35;29.00;99.90
38084;DHT22;23894;51.466;7.444;2022-10-18T21:04:23;9.90;99.90
38084;DHT22;23894;51.466;7.444;2022-10-18T21:06:29;9.70;99.90
38084;DHT22;23894;51.466;7.444;2022-10-18T21:08:30;9.60;99.90
38084;DHT22;23894;51.466;7.444;2022-10-18T21:10:30;9.60;99.90
38084;DHT22;23894;51.466;7.444;2022-10-18T21:12:31;9.50;99.90
38084;DHT22;23894;51.466;7.444;2022-10-18T21:14:32;9.50;99.90
38084;DHT22;23894;51.466;7.444;2022-10-18T21:16:34;9.40;99.90
38084;DHT22;23894;51.466;7.444;2022-10-18T21:18:35;9.40;99.90
38084;DHT22;23894;51.466;7.444;2022-10-18T21:20:36;9.30;99.90
38084;DHT22;23894;51.466;7.444;2022-10-18T21:22:37;9.30;99.90
38084;DHT22;23894;51.466;7.444;2022-10-18T21:24:37;9.30;99.90
38084;DHT22;23894;51.466;7.444;2022-10-18T21:26:38;9.30;99.90
38084;DHT22;23894;51.466;7.444;2022-10-18T21:28:39;9.20;99.90
38084;DHT22;23894;51.466;7.444;2022-10-18T21:30:40;9.20;99.90
38084;DHT22;23894;51.466;7.444;2022-10-18T21:32:41;9.20;99.90
38084;DHT22;23894;51.466;7.444;2022-10-18T21:34:41;9.20;99.90
38084;DHT22;23894;51.466;7.444;2022-10-18T21:36:43;9.10;99.90
38084;DHT22;23894;51.466;7.444;2022-10-18T21:38:45;9.10;99.90
38084;DHT22;23894;51.466;7.444;2022-10-18T21:40:45;9.10;99.90
38084;DHT22;23894;51.466;7.444;2022-10-18T21:42:46;9.10;99.90
38084;DHT22;23894;51.466;7.444;2022-10-18T21:44:46;9.10;99.90
38084;DHT22;23894;51.466;7.444;2022-10-18T21:46:47;9.00;99.90
38084;DHT22;23894;51.466;7.444;2022-10-18T21:48:50;9.00;99.90
38084;DHT22;23894;51.466;7.444;2022-10-18T21:50:50;9.00;99.90
38084;DHT22;23894;51.466;7.444;2022-10-18T21:52:51;9.00;99.90
38084;DHT22;23894;51.466;7.444;2022-10-18T21:54:51;8.90;99.90
38084;DHT22;23894;51.466;7.444;2022-10-18T21:56:52;9.00;99.90
38084;DHT22;23894;51.466;7.444;2022-10-18T21:58:53;9.00;99.90
38084;DHT22;23894;51.466;7.444;2022-10-18T22:02:06;8.90;99.90
38084;DHT22;23894;51.466;7.444;2022-10-18T22:04:16;8.90;99.90
38084;DHT22;23894;51.466;7.444;2022-10-18T22:06:18;8.80;99.90
38084;DHT22;23894;51.466;7.444;2022-10-18T22:08:19;8.80;99.90
38084;DHT22;23894;51.466;7.444;2022-10-18T22:10:19;8.70;99.90
38084;DHT22;23894;51.466;7.444;2022-10-18T22:12:20;8.70;99.90
38084;DHT22;23894;51.466;7.444;2022-10-18T22:14:21;8.70;99.90
38084;DHT22;23894;51.466;7.444;2022-10-18T22:16:22;8.60;99.90
38084;DHT22;23894;51.466;7.444;2022-10-18T22:18:22;8.70;99.90
38084;DHT22;23894;51.466;7.444;2022-10-18T22:20:23;8.80;99.90
38084;DHT22;23894;51.466;7.444;2022-10-18T22:22:23;8.80;99.90
38084;DHT22;23894;51.466;7.444;2022-10-18T22:24:24;8.70;99.90
38084;DHT22;23894;51.466;7.444;2022-10-18T22:28:26;8.70;99.90
38084;DHT22;23894;51.466;7.444;2022-10-18T22:30:26;8.60;99.90
38084;DHT22;23894;51.466;7.444;2022-10-18T22:32:27;8.60;99.90
38084;DHT22;23894;51.466;7.444;2022-10-18T22:34:27;8.60;99.90
38084;DHT22;23894;51.466;7.444;2022-10-18T22:36:28;8.60;99.90
38084;DHT22;23894;51.466;7.444;2022-10-18T22:38:32;8.50;99.90
38084;DHT22;23894;51.466;7.444;2022-10-18T22:40:34;8.50;99.90
38084;DHT22;23894;51.466;7.444;2022-10-18T22:42:34;8.50;99.90
38084;DHT22;23894;51.466;7.444;2022-10-18T22:44:35;8.50;99.90
38084;DHT22;23894;51.466;7.444;2022-10-18T22:46:35;8.50;99.90
38084;DHT22;23894;51.466;7.444;2022-10-18T22:48:36;8.40;99.90
38084;DHT22;23894;51.466;7.444;2022-10-18T22:50:37;8.50;99.90
38084;DHT22;23894;51.466;7.444;2022-10-18T22:52:37;8.40;99.90
38084;DHT22;23894;51.466;7.444;2022-10-18T22:54:38;8.40;99.90
38084;DHT22;23894;51.466;7.444;2022-10-18T22:56:38;8.40;99.90
38084;DHT22;23894;51.466;7.444;2022-10-18T22:58:39;8.40;99.90
38084;DHT22;23894;51.466;7.444;2022-10-18T23:00:39;8.30;99.90
38084;DHT22;23894;51.466;7.444;2022-10-18T23:02:40;8.30;99.90
38084;DHT22;23894;51.466;7.444;2022-10-18T23:04:40;8.30;99.90
38084;DHT22;23894;51.466;7.444;2022-10-18T23:06:41;8.20;99.90
38084;DHT22;23894;51.466;7.444;2022-10-18T23:08:41;8.20;99.90
38084;DHT22;23894;51.466;7.444;2022-10-18T23:10:42;8.20;99.90
38084;DHT22;23894;51.466;7.444;2022-10-18T23:12:43;8.10;99.90
38084;DHT22;23894;51.466;7.444;2022-10-18T23:14:43;8.10;99.90
38084;DHT22;23894;51.466;7.444;2022-10-18T23:16:45;8.10;99.90
38084;DHT22;23894;51.466;7.444;2022-10-18T23:18:56;8.00;99.90
38084;DHT22;23894;51.466;7.444;2022-10-18T23:21:04;8.00;99.90
38084;DHT22;23894;51.466;7.444;2022-10-18T23:23:05;8.00;99.90
38084;DHT22;23894;51.466;7.444;2022-10-18T23:25:06;7.90;99.90
38084;DHT22;23894;51.466;7.444;2022-10-18T23:27:07;7.80;99.90
38084;DHT22;23894;51.466;7.444;2022-10-18T23:29:07;7.80;99.90
38084;DHT22;23894;51.466;7.444;2022-10-18T23:31:17;7.80;99.90
38084;DHT22;23894;51.466;7.444;2022-10-18T23:33:18;7.80;99.90
38084;DHT22;23894;51.466;7.444;2022-10-18T23:35:19;7.70;99.90
38084;DHT22;23894;51.466;7.444;2022-10-18T23:37:19;7.70;99.90
38084;DHT22;23894;51.466;7.444;2022-10-18T23:39:20;7.70;99.90
38084;DHT22;23894;51.466;7.444;2022-10-18T23:41:20;7.60;99.90
38084;DHT22;23894;51.466;7.444;2022-10-18T23:43:21;7.60;99.90
38084;DHT22;23894;51.466;7.444;2022-10-18T23:45:21;7.60;99.90
38084;DHT22;23894;51.466;7.444;2022-10-18T23:47:22;7.60;99.90
38084;DHT22;23894;51.466;7.444;2022-10-18T23:49:23;7.60;99.90
38084;DHT22;23894;51.466;7.444;2022-10-18T23:51:23;7.60;99.90
38084;DHT22;23894;51.466;7.444;2022-10-18T23:53:24;7.50;99.90
38084;DHT22;23894;51.466;7.444;2022-10-18T23:55:24;7.50;99.90
38084;DHT22;23894;51.466;7.444;2022-10-18T23:57:25;7.50;99.90
38084;DHT22;23894;51.466;7.444;2022-10-18T23:59:26;7.40;99.90
